sensor_id;sensor_type;location;lat;lon;timestamp;temperature;humidity
10300;DHT22;5195;48.562;9.192;2022-09-02T00:02:15;20.10;42.90
10300;DHT22;5195;48.562;9.192;2022-09-02T00:04:43;20.10;43.50
10300;DHT22;5195;48.562;9.192;2022-09-02T00:07:08;20.10;42.80
10300;DHT22;5195;48.562;9.192;2022-09-02T00:09:35;19.30;44.00
10300;DHT22;5195;48.562;9.192;2022-09-02T00:12:00;19.40;44.10
10300;DHT22;5195;48.562;9.192;2022-09-02T00:14:31;19.40;44.10
10300;DHT22;5195;48.562;9.192;2022-09-02T00:16:55;19.20;44.30
10300;DHT22;5195;48.562;9.192;2022-09-02T00:19:23;19.30;44.30
10300;DHT22;5195;48.562;9.192;2022-09-02T00:21:47;19.20;44.50
10300;DHT22;5195;48.562;9.192;2022-09-02T00:24:13;19.20;44.10
10300;DHT22;5195;48.562;9.192;2022-09-02T00:26:38;19.10;44.40
10300;DHT22;5195;48.562;9.192;2022-09-02T00:29:04;19.20;44.20
10300;DHT22;5195;48.562;9.192;2022-09-02T00:31:30;19.60;43.80
10300;DHT22;5195;48.562;9.192;2022-09-02T00:33:56;19.60;43.50
10300;DHT22;5195;48.562;9.192;2022-09-02T00:36:21;19.70;43.60
10300;DHT22;5195;48.562;9.192;2022-09-02T00:38:47;19.50;44.10
10300;DHT22;5195;48.562;9.192;2022-09-02T00:41:12;19.10;44.60
10300;DHT22;5195;48.562;9.192;2022-09-02T00:43:56;19.00;45.00
10300;DHT22;5195;48.562;9.192;2022-09-02T00:46:22;19.00;45.00
10300;DHT22;5195;48.562;9.192;2022-09-02T00:48:48;18.70;45.40
10300;DHT22;5195;48.562;9.192;2022-09-02T00:51:12;18.80;45.40
10300;DHT22;5195;48.562;9.192;2022-09-02T00:53:39;19.30;44.90
10300;DHT22;5195;48.562;9.192;2022-09-02T00:56:05;19.30;44.90
10300;DHT22;5195;48.562;9.192;2022-09-02T00:58:31;19.10;45.30
10300;DHT22;5195;48.562;9.192;2022-09-02T01:00:55;18.70;45.80
10300;DHT22;5195;48.562;9.192;2022-09-02T01:03:21;18.50;46.50
10300;DHT22;5195;48.562;9.192;2022-09-02T01:05:47;18.60;46.60
10300;DHT22;5195;48.562;9.192;2022-09-02T01:08:16;18.60;46.70
10300;DHT22;5195;48.562;9.192;2022-09-02T01:10:41;18.30;46.80
10300;DHT22;5195;48.562;9.192;2022-09-02T01:13:07;18.10;47.30
10300;DHT22;5195;48.562;9.192;2022-09-02T01:15:36;18.00;47.60
10300;DHT22;5195;48.562;9.192;2022-09-02T01:18:00;18.20;47.10
10300;DHT22;5195;48.562;9.192;2022-09-02T01:20:26;18.20;47.10
10300;DHT22;5195;48.562;9.192;2022-09-02T01:22:52;18.00;47.30
10300;DHT22;5195;48.562;9.192;2022-09-02T01:25:20;17.90;47.70
10300;DHT22;5195;48.562;9.192;2022-09-02T01:27:43;18.10;47.10
10300;DHT22;5195;48.562;9.192;2022-09-02T01:30:10;18.10;47.10
10300;DHT22;5195;48.562;9.192;2022-09-02T01:32:35;18.10;47.00
10300;DHT22;5195;48.562;9.192;2022-09-02T01:35:02;18.10;47.00
10300;DHT22;5195;48.562;9.192;2022-09-02T01:37:27;18.10;47.10
10300;DHT22;5195;48.562;9.192;2022-09-02T01:39:54;17.70;47.80
10300;DHT22;5195;48.562;9.192;2022-09-02T01:42:19;17.70;47.70
10300;DHT22;5195;48.562;9.192;2022-09-02T01:44:45;17.40;48.20
10300;DHT22;5195;48.562;9.192;2022-09-02T01:47:12;17.40;48.20
10300;DHT22;5195;48.562;9.192;2022-09-02T01:49:37;17.20;48.50
10300;DHT22;5195;48.562;9.192;2022-09-02T01:52:03;17.20;48.50
10300;DHT22;5195;48.562;9.192;2022-09-02T01:54:28;17.10;48.70
10300;DHT22;5195;48.562;9.192;2022-09-02T01:56:54;17.40;48.70
10300;DHT22;5195;48.562;9.192;2022-09-02T01:59:20;17.50;48.40
10300;DHT22;5195;48.562;9.192;2022-09-02T02:01:45;17.70;48.10
10300;DHT22;5195;48.562;9.192;2022-09-02T02:04:11;18.00;47.50
10300;DHT22;5195;48.562;9.192;2022-09-02T02:06:39;18.00;47.70
10300;DHT22;5195;48.562;9.192;2022-09-02T02:09:05;18.10;47.30
10300;DHT22;5195;48.562;9.192;2022-09-02T02:11:30;18.00;47.30
10300;DHT22;5195;48.562;9.192;2022-09-02T02:13:56;17.70;47.50
10300;DHT22;5195;48.562;9.192;2022-09-02T02:16:22;17.70;46.90
10300;DHT22;5195;48.562;9.192;2022-09-02T02:18:48;17.70;46.90
10300;DHT22;5195;48.562;9.192;2022-09-02T02:21:13;18.00;46.30
10300;DHT22;5195;48.562;9.192;2022-09-02T02:23:39;18.30;45.80
10300;DHT22;5195;48.562;9.192;2022-09-02T02:26:04;18.10;46.00
10300;DHT22;5195;48.562;9.192;2022-09-02T02:28:30;18.20;45.70
10300;DHT22;5195;48.562;9.192;2022-09-02T02:30:56;18.10;46.00
10300;DHT22;5195;48.562;9.192;2022-09-02T02:33:21;18.10;45.60
10300;DHT22;5195;48.562;9.192;2022-09-02T02:35:47;18.30;45.40
10300;DHT22;5195;48.562;9.192;2022-09-02T02:38:13;18.30;44.90
10300;DHT22;5195;48.562;9.192;2022-09-02T02:40:38;18.20;45.30
10300;DHT22;5195;48.562;9.192;2022-09-02T02:43:04;18.30;45.00
10300;DHT22;5195;48.562;9.192;2022-09-02T02:45:30;18.40;44.70
10300;DHT22;5195;48.562;9.192;2022-09-02T02:47:56;18.30;45.00
10300;DHT22;5195;48.562;9.192;2022-09-02T02:50:22;18.30;44.30
10300;DHT22;5195;48.562;9.192;2022-09-02T02:52:47;18.30;44.00
10300;DHT22;5195;48.562;9.192;2022-09-02T02:55:14;18.50;43.70
10300;DHT22;5195;48.562;9.192;2022-09-02T02:57:40;18.30;44.10
10300;DHT22;5195;48.562;9.192;2022-09-02T03:00:10;17.90;44.60
10300;DHT22;5195;48.562;9.192;2022-09-02T03:02:34;17.70;45.90
10300;DHT22;5195;48.562;9.192;2022-09-02T03:05:00;17.80;44.90
10300;DHT22;5195;48.562;9.192;2022-09-02T03:07:26;18.10;44.70
10300;DHT22;5195;48.562;9.192;2022-09-02T03:09:51;18.00;45.00
10300;DHT22;5195;48.562;9.192;2022-09-02T03:12:17;18.00;45.00
10300;DHT22;5195;48.562;9.192;2022-09-02T03:14:42;17.90;45.40
10300;DHT22;5195;48.562;9.192;2022-09-02T03:17:08;17.70;46.00
10300;DHT22;5195;48.562;9.192;2022-09-02T03:19:33;17.40;46.40
10300;DHT22;5195;48.562;9.192;2022-09-02T03:21:59;17.20;46.90
10300;DHT22;5195;48.562;9.192;2022-09-02T03:24:25;17.00;47.30
10300;DHT22;5195;48.562;9.192;2022-09-02T03:26:51;16.90;47.60
10300;DHT22;5195;48.562;9.192;2022-09-02T03:29:17;17.20;47.50
10300;DHT22;5195;48.562;9.192;2022-09-02T03:31:42;17.50;47.10
10300;DHT22;5195;48.562;9.192;2022-09-02T03:34:08;17.80;46.40
10300;DHT22;5195;48.562;9.192;2022-09-02T03:36:35;17.70;46.30
10300;DHT22;5195;48.562;9.192;2022-09-02T03:38:59;17.70;44.90
10300;DHT22;5195;48.562;9.192;2022-09-02T03:41:24;17.60;45.30
10300;DHT22;5195;48.562;9.192;2022-09-02T03:43:50;17.80;45.00
10300;DHT22;5195;48.562;9.192;2022-09-02T03:46:16;17.70;45.50
10300;DHT22;5195;48.562;9.192;2022-09-02T03:48:41;17.80;44.70
10300;DHT22;5195;48.562;9.192;2022-09-02T03:51:07;17.70;45.00
10300;DHT22;5195;48.562;9.192;2022-09-02T03:53:33;17.80;44.90
10300;DHT22;5195;48.562;9.192;2022-09-02T03:56:02;18.00;44.10
10300;DHT22;5195;48.562;9.192;2022-09-02T03:58:23;18.20;44.30
10300;DHT22;5195;48.562;9.192;2022-09-02T04:00:50;18.00;44.50
10300;DHT22;5195;48.562;9.192;2022-09-02T04:03:14;18.10;44.20
10300;DHT22;5195;48.562;9.192;2022-09-02T04:05:44;17.90;44.40
10300;DHT22;5195;48.562;9.192;2022-09-02T04:08:06;17.90;44.20
10300;DHT22;5195;48.562;9.192;2022-09-02T04:10:31;17.80;44.50
10300;DHT22;5195;48.562;9.192;2022-09-02T04:12:58;17.50;45.10
10300;DHT22;5195;48.562;9.192;2022-09-02T04:15:23;17.70;45.30
10300;DHT22;5195;48.562;9.192;2022-09-02T04:17:49;17.60;45.30
10300;DHT22;5195;48.562;9.192;2022-09-02T04:20:14;17.70;45.10
10300;DHT22;5195;48.562;9.192;2022-09-02T04:22:40;17.60;45.30
10300;DHT22;5195;48.562;9.192;2022-09-02T04:25:06;17.70;45.30
10300;DHT22;5195;48.562;9.192;2022-09-02T04:27:32;17.90;45.00
10300;DHT22;5195;48.562;9.192;2022-09-02T04:29:57;18.10;44.60
10300;DHT22;5195;48.562;9.192;2022-09-02T04:32:23;17.90;44.90
10300;DHT22;5195;48.562;9.192;2022-09-02T04:34:48;17.60;45.50
10300;DHT22;5195;48.562;9.192;2022-09-02T04:37:15;17.60;45.70
10300;DHT22;5195;48.562;9.192;2022-09-02T04:39:41;17.60;46.10
10300;DHT22;5195;48.562;9.192;2022-09-02T04:42:07;17.60;46.10
10300;DHT22;5195;48.562;9.192;2022-09-02T04:44:32;17.50;46.40
10300;DHT22;5195;48.562;9.192;2022-09-02T04:46:58;17.10;46.80
10300;DHT22;5195;48.562;9.192;2022-09-02T04:49:24;17.20;46.80
10300;DHT22;5195;48.562;9.192;2022-09-02T04:51:56;17.10;46.90
10300;DHT22;5195;48.562;9.192;2022-09-02T04:54:24;16.90;47.40
10300;DHT22;5195;48.562;9.192;2022-09-02T04:56:50;16.60;47.70
10300;DHT22;5195;48.562;9.192;2022-09-02T04:59:19;16.40;48.20
10300;DHT22;5195;48.562;9.192;2022-09-02T05:01:46;16.30;48.40
10300;DHT22;5195;48.562;9.192;2022-09-02T05:04:14;16.20;48.70
10300;DHT22;5195;48.562;9.192;2022-09-02T05:06:41;16.50;48.60
10300;DHT22;5195;48.562;9.192;2022-09-02T05:09:07;16.40;48.40
10300;DHT22;5195;48.562;9.192;2022-09-02T05:11:33;16.60;48.30
10300;DHT22;5195;48.562;9.192;2022-09-02T05:14:02;16.50;48.40
10300;DHT22;5195;48.562;9.192;2022-09-02T05:16:28;16.80;48.20
10300;DHT22;5195;48.562;9.192;2022-09-02T05:18:57;16.80;48.70
10300;DHT22;5195;48.562;9.192;2022-09-02T05:21:23;17.10;47.90
10300;DHT22;5195;48.562;9.192;2022-09-02T05:23:49;17.10;47.90
10300;DHT22;5195;48.562;9.192;2022-09-02T05:26:15;16.80;48.40
10300;DHT22;5195;48.562;9.192;2022-09-02T05:28:40;16.70;48.90
10300;DHT22;5195;48.562;9.192;2022-09-02T05:31:07;16.60;48.50
10300;DHT22;5195;48.562;9.192;2022-09-02T05:33:32;16.60;48.80
10300;DHT22;5195;48.562;9.192;2022-09-02T05:35:57;16.80;48.60
10300;DHT22;5195;48.562;9.192;2022-09-02T05:38:23;17.30;48.00
10300;DHT22;5195;48.562;9.192;2022-09-02T05:40:49;17.10;48.10
10300;DHT22;5195;48.562;9.192;2022-09-02T05:43:15;17.10;48.10
10300;DHT22;5195;48.562;9.192;2022-09-02T05:45:40;17.30;47.80
10300;DHT22;5195;48.562;9.192;2022-09-02T05:48:06;17.60;47.30
10300;DHT22;5195;48.562;9.192;2022-09-02T05:50:32;18.10;46.30
10300;DHT22;5195;48.562;9.192;2022-09-02T05:52:58;18.30;46.70
10300;DHT22;5195;48.562;9.192;2022-09-02T05:55:24;18.20;46.00
10300;DHT22;5195;48.562;9.192;2022-09-02T05:57:49;18.40;45.80
10300;DHT22;5195;48.562;9.192;2022-09-02T06:00:15;18.20;46.20
10300;DHT22;5195;48.562;9.192;2022-09-02T06:02:41;17.90;46.80
10300;DHT22;5195;48.562;9.192;2022-09-02T06:05:08;18.00;47.00
10300;DHT22;5195;48.562;9.192;2022-09-02T06:07:32;18.20;46.50
10300;DHT22;5195;48.562;9.192;2022-09-02T06:09:57;18.10;46.70
10300;DHT22;5195;48.562;9.192;2022-09-02T06:12:23;17.90;47.20
10300;DHT22;5195;48.562;9.192;2022-09-02T06:14:49;18.40;47.30
10300;DHT22;5195;48.562;9.192;2022-09-02T06:17:15;18.30;46.80
10300;DHT22;5195;48.562;9.192;2022-09-02T06:19:40;18.50;47.30
10300;DHT22;5195;48.562;9.192;2022-09-02T06:22:06;18.50;47.70
10300;DHT22;5195;48.562;9.192;2022-09-02T06:24:32;18.50;48.10
10300;DHT22;5195;48.562;9.192;2022-09-02T06:26:57;18.60;48.30
10300;DHT22;5195;48.562;9.192;2022-09-02T06:29:23;18.70;48.50
10300;DHT22;5195;48.562;9.192;2022-09-02T06:31:48;19.00;46.60
10300;DHT22;5195;48.562;9.192;2022-09-02T06:34:14;19.20;46.80
10300;DHT22;5195;48.562;9.192;2022-09-02T06:36:40;19.20;47.00
10300;DHT22;5195;48.562;9.192;2022-09-02T06:39:06;19.50;45.80
10300;DHT22;5195;48.562;9.192;2022-09-02T06:41:32;19.50;45.80
10300;DHT22;5195;48.562;9.192;2022-09-02T06:43:58;19.60;45.00
10300;DHT22;5195;48.562;9.192;2022-09-02T06:46:27;19.90;44.80
10300;DHT22;5195;48.562;9.192;2022-09-02T06:48:51;19.80;45.00
10300;DHT22;5195;48.562;9.192;2022-09-02T06:51:29;19.90;44.30
10300;DHT22;5195;48.562;9.192;2022-09-02T06:53:52;20.20;44.10
10300;DHT22;5195;48.562;9.192;2022-09-02T06:56:18;20.50;43.70
10300;DHT22;5195;48.562;9.192;2022-09-02T06:58:43;20.40;44.10
10300;DHT22;5195;48.562;9.192;2022-09-02T07:01:09;20.50;43.90
10300;DHT22;5195;48.562;9.192;2022-09-02T07:03:35;20.30;44.80
10300;DHT22;5195;48.562;9.192;2022-09-02T07:06:21;20.30;44.80
10300;DHT22;5195;48.562;9.192;2022-09-02T07:08:47;20.60;43.90
10300;DHT22;5195;48.562;9.192;2022-09-02T07:11:17;21.00;43.30
10300;DHT22;5195;48.562;9.192;2022-09-02T07:13:41;21.30;42.70
10300;DHT22;5195;48.562;9.192;2022-09-02T07:16:06;21.30;43.40
10300;DHT22;5195;48.562;9.192;2022-09-02T07:18:32;21.10;43.70
10300;DHT22;5195;48.562;9.192;2022-09-02T07:20:58;20.90;44.20
10300;DHT22;5195;48.562;9.192;2022-09-02T07:23:25;21.20;43.80
10300;DHT22;5195;48.562;9.192;2022-09-02T07:25:50;21.20;43.40
10300;DHT22;5195;48.562;9.192;2022-09-02T07:28:16;21.30;43.70
10300;DHT22;5195;48.562;9.192;2022-09-02T07:30:41;21.30;43.70
10300;DHT22;5195;48.562;9.192;2022-09-02T07:33:07;21.20;43.90
10300;DHT22;5195;48.562;9.192;2022-09-02T07:35:32;21.30;44.20
10300;DHT22;5195;48.562;9.192;2022-09-02T07:37:58;21.30;44.10
10300;DHT22;5195;48.562;9.192;2022-09-02T07:40:24;21.70;42.70
10300;DHT22;5195;48.562;9.192;2022-09-02T07:42:49;22.20;41.90
10300;DHT22;5195;48.562;9.192;2022-09-02T07:45:15;22.70;41.60
10300;DHT22;5195;48.562;9.192;2022-09-02T07:47:40;22.70;41.90
10300;DHT22;5195;48.562;9.192;2022-09-02T07:50:06;22.80;41.20
10300;DHT22;5195;48.562;9.192;2022-09-02T07:52:31;22.80;41.70
10300;DHT22;5195;48.562;9.192;2022-09-02T07:54:58;23.00;41.10
10300;DHT22;5195;48.562;9.192;2022-09-02T07:57:23;22.90;41.00
10300;DHT22;5195;48.562;9.192;2022-09-02T07:59:49;23.40;40.70
10300;DHT22;5195;48.562;9.192;2022-09-02T08:02:14;23.50;41.00
10300;DHT22;5195;48.562;9.192;2022-09-02T08:04:41;23.40;41.60
10300;DHT22;5195;48.562;9.192;2022-09-02T08:07:07;23.40;41.50
10300;DHT22;5195;48.562;9.192;2022-09-02T08:09:34;23.30;41.50
10300;DHT22;5195;48.562;9.192;2022-09-02T08:11:59;23.70;40.70
10300;DHT22;5195;48.562;9.192;2022-09-02T08:14:25;24.20;39.90
10300;DHT22;5195;48.562;9.192;2022-09-02T08:16:51;24.50;38.20
10300;DHT22;5195;48.562;9.192;2022-09-02T08:19:16;24.50;38.90
10300;DHT22;5195;48.562;9.192;2022-09-02T08:21:43;24.80;38.60
10300;DHT22;5195;48.562;9.192;2022-09-02T08:24:08;24.80;38.60
10300;DHT22;5195;48.562;9.192;2022-09-02T08:26:35;24.70;39.10
10300;DHT22;5195;48.562;9.192;2022-09-02T08:29:01;24.50;39.60
10300;DHT22;5195;48.562;9.192;2022-09-02T08:31:26;24.60;38.50
10300;DHT22;5195;48.562;9.192;2022-09-02T08:33:53;25.00;38.00
10300;DHT22;5195;48.562;9.192;2022-09-02T08:36:18;25.30;39.40
10300;DHT22;5195;48.562;9.192;2022-09-02T08:38:45;25.60;37.10
10300;DHT22;5195;48.562;9.192;2022-09-02T08:41:12;25.60;37.70
10300;DHT22;5195;48.562;9.192;2022-09-02T08:43:40;25.70;37.10
10300;DHT22;5195;48.562;9.192;2022-09-02T08:46:07;25.60;37.80
10300;DHT22;5195;48.562;9.192;2022-09-02T08:51:41;25.20;38.70
10300;DHT22;5195;48.562;9.192;2022-09-02T08:56:34;25.00;39.50
10300;DHT22;5195;48.562;9.192;2022-09-02T08:59:01;25.80;36.60
10300;DHT22;5195;48.562;9.192;2022-09-02T09:06:41;26.00;36.60
10300;DHT22;5195;48.562;9.192;2022-09-02T09:09:05;26.10;36.40
10300;DHT22;5195;48.562;9.192;2022-09-02T09:11:35;26.10;36.30
10300;DHT22;5195;48.562;9.192;2022-09-02T09:14:04;26.20;34.80
10300;DHT22;5195;48.562;9.192;2022-09-02T09:16:38;26.50;35.70
10300;DHT22;5195;48.562;9.192;2022-09-02T09:19:18;26.70;32.00
10300;DHT22;5195;48.562;9.192;2022-09-02T09:21:42;26.90;31.30
10300;DHT22;5195;48.562;9.192;2022-09-02T09:24:13;26.70;31.70
10300;DHT22;5195;48.562;9.192;2022-09-02T09:26:33;26.80;31.60
10300;DHT22;5195;48.562;9.192;2022-09-02T09:28:59;26.90;31.00
10300;DHT22;5195;48.562;9.192;2022-09-02T09:31:28;27.00;30.00
10300;DHT22;5195;48.562;9.192;2022-09-02T09:33:58;27.10;30.00
10300;DHT22;5195;48.562;9.192;2022-09-02T09:36:33;26.70;31.50
10300;DHT22;5195;48.562;9.192;2022-09-02T09:38:46;26.70;31.40
10300;DHT22;5195;48.562;9.192;2022-09-02T09:41:20;26.50;32.00
10300;DHT22;5195;48.562;9.192;2022-09-02T09:43:44;26.60;31.10
10300;DHT22;5195;48.562;9.192;2022-09-02T09:46:28;26.70;31.90
10300;DHT22;5195;48.562;9.192;2022-09-02T09:48:53;26.80;31.10
10300;DHT22;5195;48.562;9.192;2022-09-02T09:51:18;27.20;30.40
10300;DHT22;5195;48.562;9.192;2022-09-02T09:53:44;27.20;30.90
10300;DHT22;5195;48.562;9.192;2022-09-02T10:01:28;27.20;30.70
10300;DHT22;5195;48.562;9.192;2022-09-02T10:03:54;27.20;31.10
10300;DHT22;5195;48.562;9.192;2022-09-02T10:09:02;27.60;29.20
10300;DHT22;5195;48.562;9.192;2022-09-02T10:11:25;27.80;29.80
10300;DHT22;5195;48.562;9.192;2022-09-02T10:13:52;27.70;29.70
10300;DHT22;5195;48.562;9.192;2022-09-02T10:22:27;27.70;30.00
10300;DHT22;5195;48.562;9.192;2022-09-02T10:30:21;27.30;30.60
10300;DHT22;5195;48.562;9.192;2022-09-02T10:35:44;27.40;30.10
10300;DHT22;5195;48.562;9.192;2022-09-02T10:38:41;27.20;31.00
10300;DHT22;5195;48.562;9.192;2022-09-02T10:47:00;27.00;31.50
10300;DHT22;5195;48.562;9.192;2022-09-02T10:52:07;27.20;30.60
10300;DHT22;5195;48.562;9.192;2022-09-02T10:54:54;27.50;30.00
10300;DHT22;5195;48.562;9.192;2022-09-02T10:57:25;27.50;30.50
10300;DHT22;5195;48.562;9.192;2022-09-02T10:59:59;27.40;31.40
10300;DHT22;5195;48.562;9.192;2022-09-02T11:02:35;27.20;31.60
10300;DHT22;5195;48.562;9.192;2022-09-02T11:04:59;27.20;30.90
10300;DHT22;5195;48.562;9.192;2022-09-02T11:07:26;27.20;30.20
10300;DHT22;5195;48.562;9.192;2022-09-02T11:09:58;27.50;30.80
10300;DHT22;5195;48.562;9.192;2022-09-02T11:12:30;27.80;30.20
10300;DHT22;5195;48.562;9.192;2022-09-02T11:15:18;27.90;30.10
10300;DHT22;5195;48.562;9.192;2022-09-02T11:20:21;27.80;31.20
10300;DHT22;5195;48.562;9.192;2022-09-02T11:22:48;27.90;30.50
10300;DHT22;5195;48.562;9.192;2022-09-02T11:27:44;27.60;32.00
10300;DHT22;5195;48.562;9.192;2022-09-02T11:30:13;27.40;31.70
10300;DHT22;5195;48.562;9.192;2022-09-02T11:32:54;27.30;32.30
10300;DHT22;5195;48.562;9.192;2022-09-02T11:35:24;27.10;32.70
10300;DHT22;5195;48.562;9.192;2022-09-02T11:37:50;27.30;31.50
10300;DHT22;5195;48.562;9.192;2022-09-02T11:40:20;27.30;31.90
10300;DHT22;5195;48.562;9.192;2022-09-02T11:43:02;27.10;31.80
10300;DHT22;5195;48.562;9.192;2022-09-02T11:48:19;27.00;32.10
10300;DHT22;5195;48.562;9.192;2022-09-02T11:53:39;27.40;32.70
10300;DHT22;5195;48.562;9.192;2022-09-02T11:58:40;27.10;32.50
10300;DHT22;5195;48.562;9.192;2022-09-02T12:01:18;27.20;31.80
10300;DHT22;5195;48.562;9.192;2022-09-02T12:03:52;27.40;31.60
10300;DHT22;5195;48.562;9.192;2022-09-02T12:06:17;27.60;32.00
10300;DHT22;5195;48.562;9.192;2022-09-02T12:11:08;27.40;32.10
10300;DHT22;5195;48.562;9.192;2022-09-02T12:13:44;27.10;32.50
10300;DHT22;5195;48.562;9.192;2022-09-02T12:18:41;26.90;32.50
10300;DHT22;5195;48.562;9.192;2022-09-02T12:21:16;26.90;32.00
10300;DHT22;5195;48.562;9.192;2022-09-02T12:27:17;27.40;31.60
10300;DHT22;5195;48.562;9.192;2022-09-02T12:28:49;27.30;32.30
10300;DHT22;5195;48.562;9.192;2022-09-02T12:31:39;27.40;31.60
10300;DHT22;5195;48.562;9.192;2022-09-02T12:36:58;27.40;31.40
10300;DHT22;5195;48.562;9.192;2022-09-02T12:50:08;27.80;30.30
10300;DHT22;5195;48.562;9.192;2022-09-02T12:52:40;27.70;30.30
10300;DHT22;5195;48.562;9.192;2022-09-02T12:55:15;27.60;31.00
10300;DHT22;5195;48.562;9.192;2022-09-02T12:57:40;27.70;31.00
10300;DHT22;5195;48.562;9.192;2022-09-02T13:00:06;27.90;30.10
10300;DHT22;5195;48.562;9.192;2022-09-02T13:02:43;27.90;29.70
10300;DHT22;5195;48.562;9.192;2022-09-02T13:05:23;27.80;30.50
10300;DHT22;5195;48.562;9.192;2022-09-02T13:13:40;28.00;29.90
10300;DHT22;5195;48.562;9.192;2022-09-02T13:16:32;28.10;30.30
10300;DHT22;5195;48.562;9.192;2022-09-02T13:19:00;27.80;30.60
10300;DHT22;5195;48.562;9.192;2022-09-02T13:34:44;26.90;31.40
10300;DHT22;5195;48.562;9.192;2022-09-02T13:37:40;27.30;31.40
10300;DHT22;5195;48.562;9.192;2022-09-02T13:40:19;27.20;31.40
10300;DHT22;5195;48.562;9.192;2022-09-02T13:42:54;27.20;31.60
10300;DHT22;5195;48.562;9.192;2022-09-02T13:45:17;27.20;31.20
10300;DHT22;5195;48.562;9.192;2022-09-02T13:47:42;27.20;31.20
10300;DHT22;5195;48.562;9.192;2022-09-02T13:50:08;27.00;31.60
10300;DHT22;5195;48.562;9.192;2022-09-02T13:52:35;27.10;30.80
10300;DHT22;5195;48.562;9.192;2022-09-02T13:54:59;27.10;31.90
10300;DHT22;5195;48.562;9.192;2022-09-02T13:57:25;27.20;30.80
10300;DHT22;5195;48.562;9.192;2022-09-02T13:59:51;27.50;30.90
10300;DHT22;5195;48.562;9.192;2022-09-02T14:02:33;27.40;30.90
10300;DHT22;5195;48.562;9.192;2022-09-02T14:05:06;27.50;30.90
10300;DHT22;5195;48.562;9.192;2022-09-02T14:07:41;27.40;31.40
10300;DHT22;5195;48.562;9.192;2022-09-02T14:10:07;27.10;31.60
10300;DHT22;5195;48.562;9.192;2022-09-02T14:12:31;27.20;31.10
10300;DHT22;5195;48.562;9.192;2022-09-02T14:14:57;27.20;31.10
10300;DHT22;5195;48.562;9.192;2022-09-02T14:17:23;26.90;31.30
10300;DHT22;5195;48.562;9.192;2022-09-02T14:19:48;27.00;31.00
10300;DHT22;5195;48.562;9.192;2022-09-02T14:22:26;27.00;31.30
10300;DHT22;5195;48.562;9.192;2022-09-02T14:24:59;27.10;30.20
10300;DHT22;5195;48.562;9.192;2022-09-02T14:27:34;27.30;30.50
10300;DHT22;5195;48.562;9.192;2022-09-02T14:30:10;27.20;30.90
10300;DHT22;5195;48.562;9.192;2022-09-02T14:36:00;27.20;31.60
10300;DHT22;5195;48.562;9.192;2022-09-02T14:41:32;27.50;31.10
10300;DHT22;5195;48.562;9.192;2022-09-02T14:44:10;27.30;31.00
10300;DHT22;5195;48.562;9.192;2022-09-02T14:46:46;27.30;30.80
10300;DHT22;5195;48.562;9.192;2022-09-02T14:49:28;27.40;30.90
10300;DHT22;5195;48.562;9.192;2022-09-02T14:52:26;27.20;31.50
10300;DHT22;5195;48.562;9.192;2022-09-02T14:54:46;27.20;31.30
10300;DHT22;5195;48.562;9.192;2022-09-02T14:57:31;27.40;31.70
10300;DHT22;5195;48.562;9.192;2022-09-02T15:02:52;27.30;31.00
10300;DHT22;5195;48.562;9.192;2022-09-02T15:05:24;27.20;30.90
10300;DHT22;5195;48.562;9.192;2022-09-02T15:07:59;27.20;30.90
10300;DHT22;5195;48.562;9.192;2022-09-02T15:10:36;26.50;31.80
10300;DHT22;5195;48.562;9.192;2022-09-02T15:13:22;26.60;30.50
10300;DHT22;5195;48.562;9.192;2022-09-02T15:15:54;26.60;30.50
10300;DHT22;5195;48.562;9.192;2022-09-02T15:18:29;26.60;31.40
10300;DHT22;5195;48.562;9.192;2022-09-02T15:21:06;26.30;31.80
10300;DHT22;5195;48.562;9.192;2022-09-02T15:23:42;26.20;32.10
10300;DHT22;5195;48.562;9.192;2022-09-02T15:26:17;26.40;31.60
10300;DHT22;5195;48.562;9.192;2022-09-02T15:29:12;26.70;30.90
10300;DHT22;5195;48.562;9.192;2022-09-02T15:31:52;26.60;31.20
10300;DHT22;5195;48.562;9.192;2022-09-02T15:34:27;26.70;31.00
10300;DHT22;5195;48.562;9.192;2022-09-02T15:37:02;26.90;31.00
10300;DHT22;5195;48.562;9.192;2022-09-02T15:39:52;27.10;31.30
10300;DHT22;5195;48.562;9.192;2022-09-02T15:42:28;27.20;30.90
10300;DHT22;5195;48.562;9.192;2022-09-02T15:45:04;27.30;30.30
10300;DHT22;5195;48.562;9.192;2022-09-02T15:47:40;27.00;30.70
10300;DHT22;5195;48.562;9.192;2022-09-02T15:50:15;26.90;32.00
10300;DHT22;5195;48.562;9.192;2022-09-02T15:52:51;26.80;31.00
10300;DHT22;5195;48.562;9.192;2022-09-02T15:55:30;26.80;31.00
10300;DHT22;5195;48.562;9.192;2022-09-02T15:58:03;26.40;31.50
10300;DHT22;5195;48.562;9.192;2022-09-02T16:00:38;26.40;31.30
10300;DHT22;5195;48.562;9.192;2022-09-02T16:03:14;26.30;31.90
10300;DHT22;5195;48.562;9.192;2022-09-02T16:05:50;26.50;31.40
10300;DHT22;5195;48.562;9.192;2022-09-02T16:08:26;26.50;31.40
10300;DHT22;5195;48.562;9.192;2022-09-02T16:11:02;26.60;31.30
10300;DHT22;5195;48.562;9.192;2022-09-02T16:13:37;26.70;31.40
10300;DHT22;5195;48.562;9.192;2022-09-02T16:16:13;26.40;31.80
10300;DHT22;5195;48.562;9.192;2022-09-02T16:18:49;26.00;32.50
10300;DHT22;5195;48.562;9.192;2022-09-02T16:21:23;25.80;33.10
10300;DHT22;5195;48.562;9.192;2022-09-02T16:23:59;25.80;32.90
10300;DHT22;5195;48.562;9.192;2022-09-02T16:26:38;26.10;32.70
10300;DHT22;5195;48.562;9.192;2022-09-02T16:29:14;26.30;32.20
10300;DHT22;5195;48.562;9.192;2022-09-02T16:31:49;26.20;32.60
10300;DHT22;5195;48.562;9.192;2022-09-02T16:34:27;26.30;32.40
10300;DHT22;5195;48.562;9.192;2022-09-02T16:37:02;26.30;32.40
10300;DHT22;5195;48.562;9.192;2022-09-02T16:39:38;26.20;32.60
10300;DHT22;5195;48.562;9.192;2022-09-02T16:42:14;26.40;33.20
10300;DHT22;5195;48.562;9.192;2022-09-02T16:44:50;26.30;33.10
10300;DHT22;5195;48.562;9.192;2022-09-02T16:47:25;26.50;32.20
10300;DHT22;5195;48.562;9.192;2022-09-02T16:50:01;26.60;32.10
10300;DHT22;5195;48.562;9.192;2022-09-02T16:52:38;26.70;32.00
10300;DHT22;5195;48.562;9.192;2022-09-02T16:55:15;26.70;32.30
10300;DHT22;5195;48.562;9.192;2022-09-02T16:57:50;26.70;32.10
10300;DHT22;5195;48.562;9.192;2022-09-02T17:00:26;26.30;32.30
10300;DHT22;5195;48.562;9.192;2022-09-02T17:03:01;26.20;32.90
10300;DHT22;5195;48.562;9.192;2022-09-02T17:05:37;26.30;32.50
10300;DHT22;5195;48.562;9.192;2022-09-02T17:08:12;26.00;32.90
10300;DHT22;5195;48.562;9.192;2022-09-02T17:10:48;25.60;34.20
10300;DHT22;5195;48.562;9.192;2022-09-02T17:13:24;25.30;34.10
10300;DHT22;5195;48.562;9.192;2022-09-02T17:15:59;25.00;34.50
10300;DHT22;5195;48.562;9.192;2022-09-02T17:18:35;24.80;34.80
10300;DHT22;5195;48.562;9.192;2022-09-02T17:24:03;24.80;35.20
10300;DHT22;5195;48.562;9.192;2022-09-02T17:26:39;24.70;35.00
10300;DHT22;5195;48.562;9.192;2022-09-02T17:29:14;24.50;35.10
10300;DHT22;5195;48.562;9.192;2022-09-02T17:31:49;24.30;35.30
10300;DHT22;5195;48.562;9.192;2022-09-02T17:34:26;24.50;35.40
10300;DHT22;5195;48.562;9.192;2022-09-02T17:37:01;24.40;35.30
10300;DHT22;5195;48.562;9.192;2022-09-02T17:39:38;24.20;35.70
10300;DHT22;5195;48.562;9.192;2022-09-02T17:42:14;24.00;35.90
10300;DHT22;5195;48.562;9.192;2022-09-02T17:44:49;24.20;35.90